createdAt,value
2018-05-23T00:01:42.405Z,52.20
2018-05-23T00:04:08.396Z,52.20
2018-05-23T00:06:34.388Z,52.20
2018-05-23T00:09:00.374Z,52.18
2018-05-23T00:11:26.362Z,52.14
2018-05-23T00:13:52.347Z,52.13
2018-05-23T00:16:18.336Z,52.15
2018-05-23T00:18:44.315Z,52.13
2018-05-23T00:21:10.305Z,52.10
2018-05-23T00:23:36.285Z,52.03
2018-05-23T00:26:02.258Z,52.02
2018-05-23T00:28:28.245Z,52.02
2018-05-23T00:30:54.222Z,52.02
2018-05-23T00:33:20.206Z,51.98
2018-05-23T00:35:46.187Z,51.96
2018-05-23T00:38:12.172Z,51.96
2018-05-23T00:40:38.154Z,51.91
2018-05-23T00:43:04.135Z,51.87
2018-05-23T00:45:30.123Z,51.90
2018-05-23T00:47:56.099Z,51.90
2018-05-23T00:50:22.185Z,51.87
2018-05-23T00:52:48.076Z,51.85
2018-05-23T00:55:14.061Z,51.87
2018-05-23T00:57:40.074Z,51.84
2018-05-23T01:00:06.083Z,51.84
2018-05-23T01:02:32.068Z,51.75
2018-05-23T01:04:58.054Z,51.76
2018-05-23T01:07:24.043Z,51.76
2018-05-23T01:09:50.029Z,51.72
2018-05-23T01:12:16.007Z,51.74
2018-05-23T01:14:41.992Z,51.65
2018-05-23T01:17:07.966Z,51.69
2018-05-23T01:19:33.960Z,51.67
2018-05-23T01:21:59.950Z,51.65
2018-05-23T01:24:25.932Z,51.58
2018-05-23T01:26:51.912Z,51.57
2018-05-23T01:29:17.897Z,51.56
2018-05-23T01:31:43.888Z,51.58
2018-05-23T01:34:09.867Z,51.55
2018-05-23T01:36:35.862Z,51.58
2018-05-23T01:39:01.859Z,51.55
2018-05-23T01:41:27.842Z,51.51
2018-05-23T01:43:53.822Z,51.54
2018-05-23T01:46:19.809Z,51.46
2018-05-23T01:48:45.808Z,51.49
2018-05-23T01:51:11.798Z,51.45
2018-05-23T01:53:37.785Z,51.45
2018-05-23T01:56:03.761Z,51.41
2018-05-23T01:58:29.750Z,51.42
2018-05-23T02:00:55.736Z,51.40
2018-05-23T02:03:21.722Z,51.38
2018-05-23T02:05:47.735Z,51.35
2018-05-23T02:08:13.714Z,51.32
2018-05-23T02:10:39.700Z,51.40
2018-05-23T02:13:05.687Z,51.42
2018-05-23T02:15:31.666Z,51.28
2018-05-23T02:17:57.691Z,51.30
2018-05-23T02:20:23.675Z,51.29
2018-05-23T02:22:49.650Z,51.25
2018-05-23T02:25:15.644Z,51.25
2018-05-23T02:27:41.622Z,51.29
2018-05-23T02:30:07.607Z,51.23
2018-05-23T02:32:33.717Z,51.26
2018-05-23T02:34:59.697Z,51.31
2018-05-23T02:37:25.695Z,51.27
2018-05-23T02:39:51.691Z,51.19
2018-05-23T02:42:17.685Z,51.25
2018-05-23T02:44:43.660Z,51.17
2018-05-23T02:47:09.755Z,51.17
2018-05-23T02:49:35.686Z,51.19
2018-05-23T02:52:01.660Z,51.19
2018-05-23T02:54:27.680Z,51.24
2018-05-23T02:56:53.661Z,51.17
2018-05-23T02:59:19.643Z,51.14
2018-05-23T03:01:45.624Z,51.17
2018-05-23T03:04:11.604Z,51.13
2018-05-23T03:06:37.588Z,51.12
2018-05-23T03:09:03.577Z,51.15
2018-05-23T03:11:29.579Z,51.19
2018-05-23T03:13:55.572Z,51.06
2018-05-23T03:16:21.562Z,51.07
2018-05-23T03:18:47.553Z,51.06
2018-05-23T03:21:13.538Z,51.05
2018-05-23T03:23:39.526Z,51.06
2018-05-23T03:26:05.513Z,51.06
2018-05-23T03:28:31.492Z,51.09
2018-05-23T03:30:57.480Z,51.02
2018-05-23T03:33:23.465Z,51.06
2018-05-23T03:35:49.445Z,51.04
2018-05-23T03:38:15.435Z,51.02
2018-05-23T03:40:41.410Z,51.03
2018-05-23T03:43:07.408Z,50.99
2018-05-23T03:45:33.396Z,51.03
2018-05-23T03:47:59.372Z,50.97
2018-05-23T03:50:25.355Z,51.02
2018-05-23T03:52:51.341Z,50.99
2018-05-23T03:55:17.326Z,51.04
2018-05-23T03:57:43.309Z,50.96
2018-05-23T04:00:09.298Z,50.98
2018-05-23T04:02:35.282Z,50.99
2018-05-23T04:05:01.277Z,50.98
2018-05-23T04:07:27.283Z,50.95
2018-05-23T04:09:53.302Z,51.14
2018-05-23T04:12:19.285Z,51.36
2018-05-23T04:14:45.297Z,51.69
2018-05-23T04:17:11.279Z,51.75
2018-05-23T04:19:37.253Z,51.75
2018-05-23T04:22:03.239Z,51.90
2018-05-23T04:24:29.249Z,52.01
2018-05-23T04:26:55.224Z,51.95
2018-05-23T04:29:21.211Z,52.20
2018-05-23T04:31:47.238Z,52.31
2018-05-23T04:34:13.218Z,52.67
2018-05-23T04:36:39.205Z,52.58
2018-05-23T04:39:05.202Z,52.67
2018-05-23T04:41:31.191Z,52.37
2018-05-23T04:43:57.177Z,52.21
2018-05-23T04:46:23.160Z,52.05
2018-05-23T04:48:49.249Z,51.97
2018-05-23T04:51:15.140Z,51.95
2018-05-23T04:53:41.131Z,51.93
2018-05-23T04:56:07.113Z,51.89
2018-05-23T04:58:33.110Z,51.89
2018-05-23T05:00:59.092Z,51.87
2018-05-23T05:03:25.099Z,51.88
2018-05-23T05:05:51.073Z,52.17
2018-05-23T05:08:17.089Z,52.10
2018-05-23T05:10:43.064Z,52.14
2018-05-23T05:13:09.044Z,52.44
2018-05-23T05:15:35.070Z,52.34
2018-05-23T05:18:01.045Z,52.40
2018-05-23T05:20:27.069Z,52.90
2018-05-23T05:22:53.068Z,52.97
2018-05-23T05:25:19.083Z,52.80
2018-05-23T05:27:45.073Z,52.71
2018-05-23T05:30:11.069Z,52.82
2018-05-23T05:32:37.047Z,53.29
2018-05-23T05:35:03.050Z,54.14
2018-05-23T05:37:29.041Z,54.10
2018-05-23T05:39:55.032Z,55.19
2018-05-23T05:42:21.025Z,54.36
2018-05-23T05:44:47.030Z,55.10
2018-05-23T05:47:13.028Z,55.28
2018-05-23T05:49:39.044Z,54.77
2018-05-23T05:52:05.089Z,53.26
2018-05-23T05:54:31.072Z,53.30
2018-05-23T05:56:57.211Z,54.58
2018-05-23T05:59:23.200Z,53.95
2018-05-23T06:01:49.202Z,53.86
2018-05-23T06:04:15.184Z,53.97
2018-05-23T06:06:41.164Z,54.04
2018-05-23T06:09:07.166Z,54.01
2018-05-23T06:11:33.163Z,53.97
2018-05-23T06:13:59.150Z,54.23
2018-05-23T06:16:25.192Z,54.73
2018-05-23T06:18:51.173Z,54.59
2018-05-23T06:21:17.176Z,54.51
2018-05-23T06:23:43.166Z,54.47
2018-05-23T06:26:09.171Z,54.50
2018-05-23T06:28:35.180Z,54.80
2018-05-23T06:31:01.161Z,54.73
2018-05-23T06:33:27.157Z,55.11
2018-05-23T06:35:53.147Z,54.54
2018-05-23T06:38:19.133Z,55.15
2018-05-23T06:40:45.132Z,54.66
2018-05-23T06:43:11.168Z,54.81
2018-05-23T06:45:37.156Z,54.67
2018-05-23T06:48:03.143Z,55.01
2018-05-23T06:50:29.147Z,54.91
2018-05-23T06:52:55.134Z,54.97
2018-05-23T06:55:21.128Z,55.05
2018-05-23T06:57:47.117Z,54.98
2018-05-23T07:00:13.114Z,54.78
2018-05-23T07:02:39.088Z,54.61
2018-05-23T07:05:05.143Z,54.50
2018-05-23T07:07:31.088Z,55.46
2018-05-23T07:09:57.073Z,55.82
2018-05-23T07:12:23.059Z,55.59
2018-05-23T07:14:49.056Z,56.88
2018-05-23T07:17:15.099Z,56.12
2018-05-23T07:19:41.089Z,55.84
2018-05-23T07:22:07.091Z,55.55
2018-05-23T07:24:33.102Z,56.26
2018-05-23T07:26:59.112Z,55.98
2018-05-23T07:29:25.101Z,56.40
2018-05-23T07:31:51.084Z,55.85
2018-05-23T07:34:17.069Z,55.95
2018-05-23T07:36:43.047Z,56.00
2018-05-23T07:39:09.035Z,55.17
2018-05-23T07:41:35.011Z,55.46
2018-05-23T07:44:01.028Z,55.07
2018-05-23T07:46:27.015Z,55.66
2018-05-23T07:48:53.005Z,55.30
2018-05-23T07:51:18.989Z,55.75
2018-05-23T07:53:44.963Z,55.75
2018-05-23T07:56:10.954Z,55.50
2018-05-23T07:58:36.948Z,55.35
2018-05-23T08:01:02.935Z,54.98
2018-05-23T08:03:29.029Z,54.92
2018-05-23T08:05:55.042Z,54.64
2018-05-23T08:08:21.009Z,54.41
2018-05-23T08:10:46.994Z,54.59
2018-05-23T08:13:12.981Z,55.27
2018-05-23T08:15:38.999Z,55.06
2018-05-23T08:18:04.954Z,55.46
2018-05-23T08:20:30.975Z,56.19
2018-05-23T08:22:56.961Z,55.54
2018-05-23T08:25:22.965Z,55.12
2018-05-23T08:27:48.951Z,54.60
2018-05-23T08:30:14.922Z,55.47
2018-05-23T08:32:40.909Z,56.09
2018-05-23T08:35:06.892Z,56.09
2018-05-23T08:37:32.878Z,57.06
2018-05-23T08:39:58.860Z,56.84
2018-05-23T08:42:24.967Z,56.51
2018-05-23T08:44:50.979Z,55.67
2018-05-23T08:47:16.984Z,55.82
2018-05-23T08:49:43.159Z,55.56
2018-05-23T08:52:09.144Z,55.90
2018-05-23T08:54:35.180Z,55.44
2018-05-23T08:57:01.158Z,55.30
2018-05-23T08:59:27.149Z,54.97
2018-05-23T09:01:53.272Z,55.50
2018-05-23T09:04:19.342Z,55.34
2018-05-23T09:06:45.341Z,55.59
2018-05-23T09:09:11.361Z,55.30
2018-05-23T09:11:37.340Z,55.38
2018-05-23T09:14:03.325Z,55.44
2018-05-23T09:16:29.311Z,55.80
2018-05-23T09:18:55.302Z,55.50
2018-05-23T09:21:21.792Z,55.38
2018-05-23T09:23:47.775Z,55.71
2018-05-23T09:26:13.771Z,55.12
2018-05-23T09:28:39.760Z,55.58
2018-05-23T09:31:05.883Z,55.68
2018-05-23T09:33:31.864Z,55.30
2018-05-23T09:35:57.873Z,55.47
2018-05-23T09:38:23.866Z,55.33
2018-05-23T09:40:50.035Z,55.14
2018-05-23T09:43:16.018Z,55.20
2018-05-23T09:45:42.006Z,55.00
2018-05-23T09:48:08.033Z,55.18
2018-05-23T09:50:34.058Z,55.16
2018-05-23T09:53:00.061Z,55.07
2018-05-23T09:55:26.160Z,55.00
2018-05-23T09:57:52.163Z,55.01
2018-05-23T10:00:18.155Z,54.17
2018-05-23T10:02:44.141Z,54.31
2018-05-23T10:05:10.128Z,54.05
2018-05-23T10:07:36.140Z,53.58
2018-05-23T10:10:02.136Z,54.24
2018-05-23T10:12:28.119Z,53.76
2018-05-23T10:14:54.117Z,54.20
2018-05-23T10:17:20.104Z,53.73
2018-05-23T10:19:46.121Z,53.94
2018-05-23T10:22:12.104Z,53.69
2018-05-23T10:24:38.096Z,53.78
2018-05-23T10:27:04.080Z,53.99
2018-05-23T10:29:30.060Z,54.04
2018-05-23T10:31:56.047Z,54.47
2018-05-23T10:34:22.026Z,54.35
2018-05-23T10:36:48.037Z,54.34
2018-05-23T10:39:14.076Z,54.07
2018-05-23T10:41:40.068Z,54.40
2018-05-23T10:44:06.057Z,54.00
2018-05-23T10:46:32.037Z,54.21
2018-05-23T10:48:58.074Z,53.96
2018-05-23T10:51:24.060Z,54.04
2018-05-23T10:53:50.048Z,54.04
2018-05-23T10:56:16.030Z,53.95
2018-05-23T10:58:42.016Z,53.68
2018-05-23T11:01:08.008Z,53.76
2018-05-23T11:03:33.997Z,53.75
2018-05-23T11:06:00.075Z,53.69
2018-05-23T11:08:25.967Z,53.59
2018-05-23T11:10:51.964Z,53.66
2018-05-23T11:13:17.951Z,53.89
2018-05-23T11:15:43.954Z,53.98
2018-05-23T11:18:09.941Z,54.01
2018-05-23T11:20:35.941Z,54.00
2018-05-23T11:23:01.918Z,53.91
2018-05-23T11:25:27.906Z,53.72
2018-05-23T11:27:53.895Z,53.67
2018-05-23T11:30:19.879Z,54.06
2018-05-23T11:32:46.077Z,54.12
2018-05-23T11:35:12.071Z,53.88
2018-05-23T11:37:38.073Z,53.81
2018-05-23T11:40:04.059Z,53.82
2018-05-23T11:42:30.079Z,53.85
2018-05-23T11:44:56.063Z,54.02
2018-05-23T11:47:22.052Z,53.83
2018-05-23T11:49:48.060Z,54.01
2018-05-23T11:52:14.175Z,54.02
2018-05-23T11:54:40.165Z,53.68
2018-05-23T11:57:06.119Z,53.97
2018-05-23T11:59:32.105Z,54.15
2018-05-23T12:01:58.209Z,54.26
2018-05-23T12:04:24.123Z,54.13
2018-05-23T12:06:50.107Z,54.12
2018-05-23T12:09:16.090Z,54.07
2018-05-23T12:11:42.103Z,54.10
2018-05-23T12:14:08.084Z,54.14
2018-05-23T12:16:34.079Z,54.23
2018-05-23T12:19:00.077Z,54.21
2018-05-23T12:21:26.112Z,54.19
2018-05-23T12:23:52.091Z,54.29
2018-05-23T12:26:18.072Z,54.29
2018-05-23T12:28:44.054Z,54.29
2018-05-23T12:31:10.035Z,54.16
2018-05-23T12:33:36.070Z,54.19
2018-05-23T12:36:02.066Z,54.31
2018-05-23T12:38:28.047Z,54.03
2018-05-23T12:40:54.197Z,54.15
2018-05-23T12:43:20.078Z,54.23
2018-05-23T12:45:46.069Z,54.20
2018-05-23T12:48:12.057Z,54.16
2018-05-23T12:50:38.050Z,54.07
2018-05-23T12:53:04.029Z,53.98
2018-05-23T12:55:30.012Z,53.99
2018-05-23T12:57:56.013Z,53.89
2018-05-23T13:00:21.996Z,53.91
2018-05-23T13:02:48.052Z,53.60
2018-05-23T13:05:14.188Z,53.74
2018-05-23T13:07:40.191Z,53.63
2018-05-23T13:10:06.172Z,53.42
2018-05-23T13:12:32.266Z,53.44
2018-05-23T13:14:58.158Z,53.50
2018-05-23T13:17:24.156Z,53.30
2018-05-23T13:19:50.143Z,53.34
2018-05-23T13:22:16.135Z,53.17
2018-05-23T13:24:42.125Z,53.16
2018-05-23T13:27:08.109Z,52.87
2018-05-23T13:29:34.087Z,53.03
2018-05-23T13:32:00.103Z,52.69
2018-05-23T13:34:26.110Z,52.79
2018-05-23T13:36:52.102Z,52.59
2018-05-23T13:39:18.090Z,52.36
2018-05-23T13:41:44.076Z,52.83
2018-05-23T13:44:10.063Z,53.04
2018-05-23T13:46:36.039Z,53.12
2018-05-23T13:49:02.084Z,52.97
2018-05-23T13:51:28.036Z,53.22
2018-05-23T13:53:54.020Z,53.31
2018-05-23T13:56:20.481Z,53.23
2018-05-23T13:58:46.431Z,53.36
2018-05-23T14:01:12.667Z,53.74
2018-05-23T14:03:38.672Z,53.60
2018-05-23T14:06:04.669Z,53.89
2018-05-23T14:08:30.772Z,53.67
2018-05-23T14:10:56.884Z,53.85
2018-05-23T14:13:22.867Z,53.77
2018-05-23T14:15:48.854Z,53.66
2018-05-23T14:18:14.832Z,53.93
2018-05-23T14:20:40.812Z,53.88
2018-05-23T14:23:06.810Z,53.81
2018-05-23T14:25:32.787Z,53.73
2018-05-23T14:27:58.774Z,53.73
2018-05-23T14:30:24.805Z,53.63
2018-05-23T14:32:50.783Z,53.58
2018-05-23T14:35:16.772Z,53.60
2018-05-23T14:37:42.778Z,53.54
2018-05-23T14:40:08.803Z,53.77
2018-05-23T14:42:34.825Z,53.92
2018-05-23T14:45:00.820Z,54.09
2018-05-23T14:47:26.844Z,53.96
2018-05-23T14:49:52.831Z,54.40
2018-05-23T14:52:19.892Z,54.23
2018-05-23T14:54:45.895Z,54.22
2018-05-23T14:57:11.880Z,54.64
2018-05-23T14:59:37.905Z,54.63
2018-05-23T15:02:03.853Z,55.08
2018-05-23T15:04:29.846Z,54.69
2018-05-23T15:06:55.834Z,53.57
2018-05-23T15:09:21.847Z,53.66
2018-05-23T15:11:47.831Z,53.38
2018-05-23T15:14:14.011Z,54.18
2018-05-23T15:16:39.978Z,53.70
2018-05-23T15:19:05.989Z,53.94
2018-05-23T15:21:31.942Z,54.28
2018-05-23T15:23:57.959Z,54.45
2018-05-23T15:26:23.947Z,54.38
2018-05-23T15:28:49.930Z,54.41
2018-05-23T15:31:16.066Z,53.72
2018-05-23T15:33:41.925Z,53.74
2018-05-23T15:36:07.930Z,53.75
2018-05-23T15:38:33.912Z,53.77
2018-05-23T15:40:59.908Z,53.75
2018-05-23T15:43:25.892Z,53.68
2018-05-23T15:45:51.957Z,53.55
2018-05-23T15:48:17.966Z,53.64
2018-05-23T15:50:43.989Z,53.51
2018-05-23T15:53:09.986Z,53.57
2018-05-23T15:55:35.980Z,53.59
2018-05-23T15:58:01.972Z,53.60
2018-05-23T16:00:27.954Z,53.38
2018-05-23T16:02:53.951Z,53.54
2018-05-23T16:05:19.912Z,53.46
2018-05-23T16:07:45.893Z,53.36
2018-05-23T16:10:11.903Z,53.45
2018-05-23T16:12:37.860Z,53.29
2018-05-23T16:15:03.843Z,53.40
2018-05-23T16:17:29.825Z,53.22
2018-05-23T16:19:55.840Z,53.31
2018-05-23T16:22:21.855Z,53.27
2018-05-23T16:24:47.853Z,53.27
2018-05-23T16:27:13.839Z,53.31
2018-05-23T16:29:39.866Z,53.27
2018-05-23T16:32:05.875Z,53.14
2018-05-23T16:34:31.928Z,53.09
2018-05-23T16:36:57.874Z,52.80
2018-05-23T16:39:23.868Z,52.98
2018-05-23T16:41:49.858Z,52.81
2018-05-23T16:44:15.844Z,52.83
2018-05-23T16:46:41.824Z,52.79
2018-05-23T16:49:07.838Z,52.77
2018-05-23T16:51:33.811Z,52.69
2018-05-23T16:53:59.783Z,52.69
2018-05-23T16:56:25.764Z,52.64
2018-05-23T16:58:51.773Z,51.80
2018-05-23T17:01:17.769Z,51.58
2018-05-23T17:03:43.761Z,51.22
2018-05-23T17:06:09.754Z,51.30
2018-05-23T17:08:35.737Z,51.39
2018-05-23T17:11:01.725Z,51.58
2018-05-23T17:13:27.715Z,51.56
2018-05-23T17:15:53.701Z,51.68
2018-05-23T17:18:19.688Z,51.76
2018-05-23T17:20:45.664Z,51.87
2018-05-23T17:23:11.654Z,51.87
2018-05-23T17:25:37.653Z,51.94
2018-05-23T17:28:03.663Z,52.03
2018-05-23T17:30:29.678Z,51.96
2018-05-23T17:32:55.684Z,51.79
2018-05-23T17:35:21.665Z,51.93
2018-05-23T17:37:47.664Z,51.95
2018-05-23T17:40:13.686Z,51.96
2018-05-23T17:42:39.635Z,52.03
2018-05-23T17:45:05.621Z,52.07
2018-05-23T17:47:31.604Z,52.18
2018-05-23T17:49:58.731Z,52.27
2018-05-23T17:52:24.717Z,52.37
2018-05-23T17:54:50.782Z,52.23
2018-05-23T17:57:16.779Z,52.32
2018-05-23T17:59:42.797Z,52.22
2018-05-23T18:02:08.886Z,52.23
2018-05-23T18:04:34.901Z,52.27
2018-05-23T18:07:00.920Z,52.26
2018-05-23T18:09:26.904Z,52.27
2018-05-23T18:11:53.269Z,52.30
2018-05-23T18:14:19.254Z,52.40
2018-05-23T18:16:45.355Z,53.13
2018-05-23T18:19:11.247Z,53.00
2018-05-23T18:21:37.227Z,53.09
2018-05-23T18:24:03.244Z,53.44
2018-05-23T18:26:29.200Z,53.57
2018-05-23T18:28:55.278Z,53.31
2018-05-23T18:31:21.245Z,53.41
2018-05-23T18:33:47.234Z,53.70
2018-05-23T18:36:13.230Z,53.68
2018-05-23T18:38:39.240Z,53.70
2018-05-23T18:41:05.217Z,53.79
2018-05-23T18:43:31.237Z,53.67
2018-05-23T18:45:57.230Z,54.03
2018-05-23T18:48:23.214Z,54.00
2018-05-23T18:50:49.310Z,54.05
2018-05-23T18:53:15.564Z,54.38
2018-05-23T18:55:42.060Z,54.42
2018-05-23T18:58:08.742Z,54.41
2018-05-23T19:00:35.074Z,54.14
2018-05-23T19:03:01.953Z,54.09
2018-05-23T19:05:28.486Z,54.46
2018-05-23T19:07:54.541Z,54.60
2018-05-23T19:10:21.010Z,54.61
2018-05-23T19:12:47.381Z,54.69
2018-05-23T19:15:13.958Z,54.63
2018-05-23T19:17:40.168Z,54.86
2018-05-23T19:20:06.694Z,54.78
2018-05-23T19:22:32.562Z,54.56
2018-05-23T19:24:58.607Z,54.13
2018-05-23T19:27:24.556Z,54.61
2018-05-23T19:29:50.731Z,54.40
2018-05-23T19:32:16.708Z,54.74
2018-05-23T19:34:42.692Z,54.58
2018-05-23T19:37:08.684Z,54.83
2018-05-23T19:39:34.673Z,54.50
2018-05-23T19:42:00.656Z,54.54
2018-05-23T19:44:26.635Z,54.59
2018-05-23T19:46:52.644Z,55.24
2018-05-23T19:49:18.624Z,55.01
2018-05-23T19:51:44.610Z,54.84
2018-05-23T19:54:11.541Z,54.81
2018-05-23T19:56:37.572Z,54.80
2018-05-23T19:59:03.472Z,54.86
2018-05-23T20:01:29.462Z,54.60
2018-05-23T20:03:57.806Z,54.76
2018-05-23T20:06:23.930Z,54.69
2018-05-23T20:08:49.908Z,54.80
2018-05-23T20:11:15.897Z,54.82
2018-05-23T20:13:42.796Z,54.67
2018-05-23T20:16:08.741Z,54.86
2018-05-23T20:18:34.721Z,55.03
2018-05-23T20:21:00.706Z,54.97
2018-05-23T20:23:26.719Z,54.81
2018-05-23T20:25:52.700Z,54.75
2018-05-23T20:28:18.679Z,54.98
2018-05-23T20:30:44.659Z,54.79
2018-05-23T20:33:10.639Z,55.02
2018-05-23T20:35:36.617Z,54.71
2018-05-23T20:38:02.605Z,54.55
2018-05-23T20:40:28.580Z,54.61
2018-05-23T20:42:54.555Z,54.73
2018-05-23T20:45:20.537Z,54.85
2018-05-23T20:47:46.540Z,54.72
2018-05-23T20:50:12.572Z,55.03
2018-05-23T20:52:38.522Z,54.69
2018-05-23T20:55:04.498Z,54.66
2018-05-23T20:57:30.625Z,54.71
2018-05-23T20:59:56.582Z,54.64
2018-05-23T21:02:22.597Z,54.84
2018-05-23T21:04:48.931Z,54.59
2018-05-23T21:07:15.009Z,54.69
2018-05-23T21:09:41.000Z,54.70
2018-05-23T21:12:07.150Z,54.66
2018-05-23T21:14:33.143Z,54.72
2018-05-23T21:16:59.144Z,54.68
2018-05-23T21:19:25.300Z,54.86
2018-05-23T21:21:51.174Z,54.67
2018-05-23T21:24:17.155Z,54.66
2018-05-23T21:26:43.140Z,54.61
2018-05-23T21:29:09.119Z,54.62
2018-05-23T21:31:35.104Z,54.63
2018-05-23T21:34:01.095Z,54.64
2018-05-23T21:36:27.083Z,54.60
2018-05-23T21:38:53.064Z,54.54
2018-05-23T21:41:19.045Z,54.56
2018-05-23T21:43:45.032Z,54.44
2018-05-23T21:46:11.019Z,54.44
2018-05-23T21:48:37.008Z,54.56
2018-05-23T21:51:02.995Z,54.44
2018-05-23T21:53:29.028Z,54.59
2018-05-23T21:55:55.011Z,54.40
2018-05-23T21:58:20.996Z,54.51
2018-05-23T22:00:46.980Z,54.47
2018-05-23T22:03:12.966Z,54.50
2018-05-23T22:05:38.934Z,54.53
2018-05-23T22:08:04.921Z,54.35
2018-05-23T22:10:30.939Z,54.48
2018-05-23T22:12:56.913Z,54.30
2018-05-23T22:15:22.890Z,54.40
2018-05-23T22:17:48.907Z,54.18
2018-05-23T22:20:14.881Z,54.29
2018-05-23T22:22:40.860Z,54.17
2018-05-23T22:25:06.840Z,54.14
2018-05-23T22:27:32.817Z,54.34
2018-05-23T22:29:58.795Z,54.15
2018-05-23T22:32:24.814Z,54.27
2018-05-23T22:34:50.753Z,54.25
2018-05-23T22:37:16.734Z,54.06
2018-05-23T22:39:42.715Z,54.25
2018-05-23T22:42:08.696Z,54.08
2018-05-23T22:44:34.680Z,54.14
2018-05-23T22:47:00.665Z,54.01
2018-05-23T22:49:26.655Z,54.02
2018-05-23T22:51:52.644Z,53.98
2018-05-23T22:54:18.684Z,53.88
2018-05-23T22:56:44.669Z,53.88
2018-05-23T22:59:10.656Z,53.92
2018-05-23T23:01:36.656Z,53.91
2018-05-23T23:04:02.696Z,53.91
2018-05-23T23:06:28.671Z,53.71
2018-05-23T23:08:54.657Z,53.78
2018-05-23T23:11:20.637Z,53.78
2018-05-23T23:13:46.628Z,53.71
2018-05-23T23:16:12.636Z,53.78
2018-05-23T23:18:38.615Z,53.71
2018-05-23T23:21:04.605Z,53.67
2018-05-23T23:23:30.623Z,53.75
2018-05-23T23:25:56.606Z,53.63
2018-05-23T23:28:22.606Z,53.56
2018-05-23T23:30:48.599Z,53.49
2018-05-23T23:33:14.574Z,53.57
2018-05-23T23:35:40.554Z,53.54
2018-05-23T23:38:06.576Z,53.55
2018-05-23T23:40:32.529Z,53.54
2018-05-23T23:42:58.513Z,53.50
2018-05-23T23:45:24.498Z,53.48
2018-05-23T23:47:50.493Z,53.47
2018-05-23T23:50:16.506Z,53.47
2018-05-23T23:52:42.464Z,53.42
2018-05-23T23:55:08.446Z,53.43
2018-05-23T23:57:34.430Z,53.35
